createdAt,value
2017-06-02T00:00:11.110Z,73.30
2017-06-02T00:02:38.664Z,72.30
2017-06-02T00:05:06.212Z,72.30
2017-06-02T00:07:34.147Z,71.00
2017-06-02T00:10:01.733Z,70.90
2017-06-02T00:12:29.275Z,70.40
2017-06-02T00:14:56.811Z,70.40
2017-06-02T00:17:24.381Z,71.40
2017-06-02T00:19:51.915Z,70.60
2017-06-02T00:22:19.449Z,71.40
2017-06-02T00:24:47.421Z,72.00
2017-06-02T00:27:14.951Z,72.00
2017-06-02T00:29:42.490Z,72.20
2017-06-02T00:32:10.055Z,71.60
2017-06-02T00:34:37.592Z,71.60
2017-06-02T00:37:05.128Z,71.10
2017-06-02T00:39:32.701Z,70.20
2017-06-02T00:42:00.250Z,71.00
2017-06-02T00:44:27.809Z,72.30
2017-06-02T00:46:55.788Z,71.60
2017-06-02T00:49:23.332Z,71.60
2017-06-02T00:51:51.272Z,71.10
2017-06-02T00:54:18.840Z,71.10
2017-06-02T00:56:46.432Z,71.10
2017-06-02T00:59:14.000Z,71.40
2017-06-02T01:01:41.632Z,71.20
2017-06-02T01:04:09.215Z,69.70
2017-06-02T01:06:37.157Z,72.00
2017-06-02T01:09:04.719Z,72.00
2017-06-02T01:11:32.257Z,70.80
2017-06-02T01:13:59.787Z,70.40
2017-06-02T01:16:27.347Z,70.20
2017-06-02T01:18:54.884Z,71.10
2017-06-02T01:21:22.423Z,71.30
2017-06-02T01:23:49.991Z,70.20
2017-06-02T01:26:17.536Z,68.90
2017-06-02T01:28:45.077Z,70.50
2017-06-02T01:31:12.643Z,70.70
2017-06-02T01:33:40.179Z,71.50
2017-06-02T01:36:07.734Z,69.70
2017-06-02T01:38:35.313Z,69.70
2017-06-02T01:41:02.843Z,69.60
2017-06-02T01:43:30.392Z,69.70
2017-06-02T01:45:58.348Z,69.60
2017-06-02T01:48:25.887Z,69.60
2017-06-02T01:50:53.429Z,70.40
2017-06-02T01:53:20.992Z,69.30
2017-06-02T01:55:48.532Z,69.10
2017-06-02T01:58:16.075Z,68.80
2017-06-02T02:00:43.639Z,68.90
2017-06-02T02:03:11.193Z,70.00
2017-06-02T02:05:39.129Z,69.80
2017-06-02T02:08:06.684Z,69.80
2017-06-02T02:10:34.217Z,69.60
2017-06-02T02:13:01.760Z,69.80
2017-06-02T02:15:29.332Z,69.80
2017-06-02T02:17:56.872Z,69.70
2017-06-02T02:20:24.423Z,70.30
2017-06-02T02:22:51.988Z,70.20
2017-06-02T02:25:19.529Z,71.10
2017-06-02T02:27:47.060Z,70.70
2017-06-02T02:30:14.624Z,70.90
2017-06-02T02:32:42.164Z,70.00
2017-06-02T02:35:09.700Z,69.80
2017-06-02T02:37:37.255Z,70.40
2017-06-02T02:40:04.809Z,70.00
2017-06-02T02:42:32.352Z,70.80
2017-06-02T02:44:59.911Z,70.30
2017-06-02T02:47:27.448Z,70.80
2017-06-02T02:49:54.992Z,71.80
2017-06-02T02:52:22.555Z,71.30
2017-06-02T02:54:50.104Z,70.90
2017-06-02T02:57:17.644Z,70.30
2017-06-02T02:59:45.536Z,70.60
2017-06-02T03:02:13.080Z,70.20
2017-06-02T03:04:40.620Z,70.60
2017-06-02T03:07:08.584Z,71.90
2017-06-02T03:09:36.521Z,73.20
2017-06-02T03:12:04.060Z,73.10
2017-06-02T03:14:31.625Z,73.10
2017-06-02T03:16:59.160Z,73.70
2017-06-02T03:19:26.703Z,74.40
2017-06-02T03:21:54.667Z,73.50
2017-06-02T03:24:22.598Z,73.30
2017-06-02T03:26:50.136Z,73.20
2017-06-02T03:29:17.700Z,73.50
2017-06-02T03:31:45.231Z,73.30
2017-06-02T03:34:12.785Z,72.80
2017-06-02T03:36:40.749Z,73.00
2017-06-02T03:39:08.286Z,73.00
2017-06-02T03:41:35.823Z,73.40
2017-06-02T03:44:03.804Z,75.00
2017-06-02T03:46:31.352Z,74.80
2017-06-02T03:48:58.883Z,75.50
2017-06-02T03:51:26.457Z,74.10
2017-06-02T03:53:53.992Z,75.90
2017-06-02T03:56:21.933Z,75.70
2017-06-02T03:58:49.496Z,75.70
2017-06-02T04:01:17.042Z,76.00
2017-06-02T04:03:44.583Z,75.10
2017-06-02T04:06:12.153Z,74.90
2017-06-02T04:08:39.701Z,75.50
2017-06-02T04:11:07.248Z,74.60
2017-06-02T04:13:34.825Z,74.10
2017-06-02T04:16:02.368Z,74.90
2017-06-02T04:18:29.912Z,73.90
2017-06-02T04:20:57.484Z,74.10
2017-06-02T04:23:25.033Z,73.60
2017-06-02T04:25:52.972Z,73.40
2017-06-02T04:28:20.531Z,73.40
2017-06-02T04:30:48.080Z,72.70
2017-06-02T04:33:15.619Z,72.60
2017-06-02T04:35:43.189Z,72.30
2017-06-02T04:38:10.722Z,72.40
2017-06-02T04:40:38.268Z,72.90
2017-06-02T04:43:06.227Z,73.50
2017-06-02T04:45:34.163Z,72.60
2017-06-02T04:48:01.703Z,72.60
2017-06-02T04:50:29.384Z,73.40
2017-06-02T04:52:56.928Z,74.40
2017-06-02T04:55:24.473Z,74.30
2017-06-02T04:57:52.040Z,74.10
2017-06-02T05:00:19.588Z,73.00
2017-06-02T05:02:47.136Z,74.00
2017-06-02T05:05:15.109Z,73.10
2017-06-02T05:07:43.053Z,72.00
2017-06-02T05:10:10.603Z,72.00
2017-06-02T05:12:38.176Z,71.30
2017-06-02T05:15:05.713Z,71.20
2017-06-02T05:17:33.255Z,71.80
2017-06-02T05:20:00.829Z,72.80
2017-06-02T05:22:28.376Z,73.30
2017-06-02T05:24:55.930Z,72.90
2017-06-02T05:27:23.488Z,73.30
2017-06-02T05:29:51.028Z,72.40
2017-06-02T05:32:18.963Z,71.90
2017-06-02T05:34:46.528Z,71.90
2017-06-02T05:37:14.077Z,71.80
2017-06-02T05:39:41.616Z,72.00
2017-06-02T05:42:09.189Z,72.10
2017-06-02T05:44:36.729Z,72.60
2017-06-02T05:47:04.317Z,71.70
2017-06-02T05:49:31.885Z,71.30
2017-06-02T05:51:59.438Z,71.20
2017-06-02T05:54:27.008Z,72.50
2017-06-02T05:56:54.556Z,72.20
2017-06-02T05:59:22.099Z,72.60
2017-06-02T06:01:49.729Z,73.10
2017-06-02T06:04:17.275Z,72.60
2017-06-02T06:06:44.811Z,71.00
2017-06-02T06:09:12.379Z,71.10
2017-06-02T06:11:39.936Z,71.70
2017-06-02T06:14:07.473Z,71.00
2017-06-02T06:16:35.042Z,72.00
2017-06-02T06:19:02.580Z,69.00
2017-06-02T06:21:30.132Z,69.70
2017-06-02T06:23:57.699Z,68.90
2017-06-02T06:26:25.249Z,69.60
2017-06-02T06:28:52.796Z,70.60
2017-06-02T06:31:20.760Z,68.50
2017-06-02T06:33:48.733Z,68.10
2017-06-02T06:36:16.697Z,68.50
2017-06-02T06:38:44.240Z,68.50
2017-06-02T06:41:11.821Z,68.00
2017-06-02T06:43:39.755Z,67.40
2017-06-02T06:46:07.303Z,67.40
2017-06-02T06:48:34.873Z,67.60
2017-06-02T06:51:02.440Z,66.90
2017-06-02T06:53:29.984Z,66.40
2017-06-02T06:55:57.528Z,67.50
2017-06-02T06:58:25.092Z,67.70
2017-06-02T07:00:52.626Z,67.50
2017-06-02T07:03:20.176Z,67.60
2017-06-02T07:05:48.139Z,66.90
2017-06-02T07:08:15.684Z,66.90
2017-06-02T07:10:43.251Z,66.20
2017-06-02T07:13:10.796Z,64.00
2017-06-02T07:15:38.340Z,62.90
2017-06-02T07:18:05.905Z,63.30
2017-06-02T07:20:33.413Z,61.90
2017-06-02T07:23:00.992Z,64.20
2017-06-02T07:25:28.903Z,63.00
2017-06-02T07:27:56.449Z,62.50
2017-06-02T07:30:23.997Z,59.50
2017-06-02T07:32:51.568Z,59.70
2017-06-02T07:35:19.108Z,61.40
2017-06-02T07:37:46.661Z,59.60
2017-06-02T07:40:14.229Z,59.40
2017-06-02T07:42:41.787Z,58.90
2017-06-02T07:45:09.344Z,57.60
2017-06-02T07:47:36.899Z,59.40
2017-06-02T07:50:04.863Z,59.50
2017-06-02T07:52:32.804Z,59.70
2017-06-02T07:55:00.352Z,59.70
2017-06-02T07:57:27.937Z,57.50
2017-06-02T07:59:55.485Z,58.00
2017-06-02T08:02:23.015Z,57.50
2017-06-02T08:04:50.581Z,58.90
2017-06-02T08:07:18.121Z,61.00
2017-06-02T08:09:45.668Z,59.10
2017-06-02T08:12:13.235Z,59.20
2017-06-02T08:14:40.776Z,57.20
2017-06-02T08:17:08.721Z,62.10
2017-06-02T08:19:36.283Z,62.10
2017-06-02T08:22:03.960Z,61.10
2017-06-02T08:24:31.508Z,62.20
2017-06-02T08:26:59.058Z,61.70
2017-06-02T08:29:26.644Z,61.60
2017-06-02T08:31:54.234Z,59.80
2017-06-02T08:34:22.163Z,60.10
2017-06-02T08:36:49.748Z,60.10
2017-06-02T08:39:17.697Z,62.80
2017-06-02T08:41:45.254Z,62.70
2017-06-02T08:44:12.832Z,60.80
2017-06-02T08:46:40.385Z,61.80
2017-06-02T08:49:07.935Z,61.80
2017-06-02T08:51:35.512Z,61.10
2017-06-02T08:54:03.055Z,61.60
2017-06-02T08:56:30.596Z,61.10
2017-06-02T08:58:58.173Z,60.90
2017-06-02T09:01:25.712Z,61.10
2017-06-02T09:03:53.266Z,59.90
2017-06-02T09:06:20.837Z,60.70
2017-06-02T09:08:48.399Z,60.00
2017-06-02T09:11:15.973Z,60.60
2017-06-02T09:13:43.521Z,58.40
2017-06-02T09:16:11.087Z,58.90
2017-06-02T09:18:38.628Z,57.60
2017-06-02T09:21:06.172Z,57.50
2017-06-02T09:23:33.743Z,56.30
2017-06-02T09:26:01.288Z,58.30
2017-06-02T09:28:28.836Z,54.90
2017-06-02T09:30:56.808Z,56.30
2017-06-02T09:33:24.335Z,56.30
2017-06-02T09:35:51.881Z,57.70
2017-06-02T09:38:19.448Z,56.30
2017-06-02T09:40:46.988Z,56.40
2017-06-02T09:43:14.528Z,56.10
2017-06-02T09:45:42.097Z,56.50
2017-06-02T09:48:09.636Z,55.00
2017-06-02T09:50:37.576Z,53.10
2017-06-02T09:53:05.145Z,53.10
2017-06-02T09:55:32.685Z,53.40
2017-06-02T09:58:00.230Z,52.00
2017-06-02T10:00:27.791Z,54.10
2017-06-02T10:02:55.353Z,53.30
2017-06-02T10:05:22.908Z,52.80
2017-06-02T10:07:50.455Z,53.30
2017-06-02T10:10:18.017Z,52.10
2017-06-02T10:12:45.556Z,51.70
2017-06-02T10:15:13.524Z,53.20
2017-06-02T10:17:41.460Z,52.60
2017-06-02T10:20:08.991Z,52.60
2017-06-02T10:22:36.669Z,52.30
2017-06-02T10:25:04.204Z,54.10
2017-06-02T10:27:31.740Z,52.00
2017-06-02T10:29:59.340Z,51.80
2017-06-02T10:32:26.868Z,51.20
2017-06-02T10:34:54.451Z,53.70
2017-06-02T10:37:22.012Z,54.70
2017-06-02T10:39:49.548Z,54.90
2017-06-02T10:42:17.484Z,53.40
2017-06-02T10:44:45.044Z,53.40
2017-06-02T10:47:12.591Z,55.50
2017-06-02T10:49:40.119Z,53.60
2017-06-02T10:52:07.692Z,55.50
2017-06-02T10:54:35.233Z,54.80
2017-06-02T10:57:02.768Z,54.30
2017-06-02T10:59:30.727Z,53.50
2017-06-02T11:01:58.264Z,53.50
2017-06-02T11:04:25.809Z,51.00
2017-06-02T11:06:53.405Z,52.50
2017-06-02T11:09:20.932Z,52.70
2017-06-02T11:11:48.469Z,50.70
2017-06-02T11:14:16.042Z,50.00
2017-06-02T11:16:43.581Z,50.70
2017-06-02T11:19:11.132Z,51.60
2017-06-02T11:21:39.097Z,50.40
2017-06-02T11:24:07.032Z,49.60
2017-06-02T11:26:34.576Z,49.60
2017-06-02T11:29:02.136Z,50.30
2017-06-02T11:31:29.672Z,50.80
2017-06-02T11:33:57.208Z,52.30
2017-06-02T11:36:24.772Z,52.10
2017-06-02T11:38:52.702Z,50.50
2017-06-02T11:41:20.256Z,50.50
2017-06-02T11:43:47.813Z,52.60
2017-06-02T11:46:15.360Z,51.10
2017-06-02T11:48:42.899Z,52.50
2017-06-02T11:51:10.469Z,51.20
2017-06-02T11:53:38.012Z,51.40
2017-06-02T11:56:05.948Z,51.60
2017-06-02T11:58:33.516Z,51.60
2017-06-02T12:01:01.053Z,51.60
2017-06-02T12:03:28.597Z,52.00
2017-06-02T12:05:56.164Z,50.30
2017-06-02T12:08:23.712Z,51.60
2017-06-02T12:10:51.258Z,50.90
2017-06-02T12:13:18.828Z,52.70
2017-06-02T12:15:46.367Z,49.90
2017-06-02T12:18:14.304Z,50.30
2017-06-02T12:20:41.872Z,50.30
2017-06-02T12:23:09.417Z,52.20
2017-06-02T12:25:36.962Z,51.60
2017-06-02T12:29:09.353Z,51.30
2017-06-02T12:31:36.879Z,51.00
2017-06-02T12:34:04.415Z,52.50
2017-06-02T12:36:32.373Z,51.90
2017-06-02T12:38:59.916Z,51.80
2017-06-02T12:41:27.453Z,51.70
2017-06-02T12:43:55.019Z,50.70
2017-06-02T12:46:22.555Z,52.60
2017-06-02T12:48:50.107Z,53.60
2017-06-02T12:51:17.667Z,51.80
2017-06-02T12:53:45.207Z,52.10
2017-06-02T12:56:13.148Z,53.50
2017-06-02T12:58:40.712Z,53.50
2017-06-02T13:01:08.261Z,52.80
2017-06-02T13:03:35.795Z,50.80
2017-06-02T13:06:03.355Z,49.90
2017-06-02T13:08:30.893Z,52.00
2017-06-02T13:10:58.439Z,50.40
2017-06-02T13:13:26.009Z,51.30
2017-06-02T13:15:53.940Z,51.60
2017-06-02T13:18:21.475Z,51.60
2017-06-02T13:20:49.040Z,50.80
2017-06-02T13:23:16.584Z,52.50
2017-06-02T13:25:44.128Z,52.00
2017-06-02T13:28:12.104Z,50.60
2017-06-02T13:30:40.036Z,50.90
2017-06-02T13:33:07.587Z,50.90
2017-06-02T13:35:35.142Z,50.60
2017-06-02T13:38:02.684Z,50.70
2017-06-02T13:40:30.220Z,51.50
2017-06-02T13:42:57.816Z,50.80
2017-06-02T13:45:25.348Z,51.20
2017-06-02T13:47:52.912Z,52.10
2017-06-02T13:50:20.464Z,50.60
2017-06-02T13:52:48.399Z,49.90
2017-06-02T13:55:15.955Z,49.90
2017-06-02T13:57:43.499Z,49.60
2017-06-02T14:00:11.036Z,49.40
2017-06-02T14:02:38.558Z,49.10
2017-06-02T14:05:06.207Z,49.50
2017-06-02T14:07:33.731Z,52.00
2017-06-02T14:10:01.278Z,51.00
2017-06-02T14:12:28.839Z,50.00
2017-06-02T14:14:56.379Z,51.70
2017-06-02T14:17:23.919Z,50.90
2017-06-02T14:19:51.484Z,49.90
2017-06-02T14:22:19.433Z,50.50
2017-06-02T14:24:46.967Z,50.40
2017-06-02T14:27:14.539Z,50.40
2017-06-02T14:29:42.088Z,49.70
2017-06-02T14:32:09.628Z,49.90
2017-06-02T14:34:37.196Z,49.80
2017-06-02T14:37:04.731Z,50.20
2017-06-02T14:39:32.676Z,50.80
2017-06-02T14:42:00.235Z,50.80
2017-06-02T14:44:27.780Z,50.00
2017-06-02T14:46:55.324Z,51.20
2017-06-02T14:49:22.883Z,52.90
2017-06-02T14:51:50.431Z,55.70
2017-06-02T14:54:17.966Z,57.10
2017-06-02T14:56:45.931Z,58.90
2017-06-02T14:59:13.879Z,59.80
2017-06-02T15:01:41.441Z,59.70
2017-06-02T15:04:09.007Z,60.20
2017-06-02T15:06:36.560Z,60.80
2017-06-02T15:09:04.126Z,61.30
2017-06-02T15:11:31.683Z,61.50
2017-06-02T15:13:59.249Z,62.30
2017-06-02T15:16:26.814Z,62.70
2017-06-02T15:18:54.362Z,63.40
2017-06-02T15:21:21.907Z,63.60
2017-06-02T15:23:49.479Z,64.40
2017-06-02T15:26:17.021Z,64.70
2017-06-02T15:28:44.565Z,65.50
2017-06-02T15:31:12.146Z,66.40
2017-06-02T15:33:39.683Z,67.10
2017-06-02T15:36:07.224Z,68.10
2017-06-02T15:38:34.796Z,68.50
2017-06-02T15:41:02.337Z,69.20
2017-06-02T15:43:29.888Z,69.20
2017-06-02T15:45:57.455Z,69.20
2017-06-02T15:48:25.000Z,70.30
2017-06-02T15:50:52.543Z,71.10
2017-06-02T15:53:20.108Z,70.70
2017-06-02T15:55:47.659Z,70.20
2017-06-02T15:58:15.201Z,71.00
2017-06-02T16:00:42.773Z,71.40
2017-06-02T16:03:10.321Z,71.30
2017-06-02T16:05:37.864Z,70.90
2017-06-02T16:08:05.431Z,71.10
2017-06-02T16:10:32.987Z,70.00
2017-06-02T16:13:00.533Z,70.40
2017-06-02T16:15:28.489Z,71.30
2017-06-02T16:17:56.433Z,70.60
2017-06-02T16:20:23.975Z,70.60
2017-06-02T16:22:51.548Z,69.50
2017-06-02T16:25:19.092Z,70.30
2017-06-02T16:27:46.633Z,71.40
2017-06-02T16:30:14.204Z,71.40
2017-06-02T16:32:41.744Z,71.10
2017-06-02T16:35:09.297Z,70.90
2017-06-02T16:37:37.260Z,70.00
2017-06-02T16:40:05.204Z,69.70
2017-06-02T16:42:32.751Z,69.70
2017-06-02T16:45:00.317Z,69.30
2017-06-02T16:47:27.859Z,69.20
2017-06-02T16:49:55.433Z,69.00
2017-06-02T16:52:22.983Z,68.90
2017-06-02T16:54:50.556Z,69.70
2017-06-02T16:57:18.105Z,68.90
2017-06-02T16:59:45.672Z,68.60
2017-06-02T17:02:13.226Z,69.50
2017-06-02T17:04:40.774Z,70.30
2017-06-02T17:07:08.339Z,70.60
2017-06-02T17:09:35.893Z,71.00
2017-06-02T17:12:03.486Z,70.70
2017-06-02T17:14:31.028Z,71.60
2017-06-02T17:16:58.577Z,71.80
2017-06-02T17:19:26.144Z,71.70
2017-06-02T17:21:53.688Z,71.30
2017-06-02T17:24:21.239Z,72.10
2017-06-02T17:26:49.199Z,72.50
2017-06-02T17:29:17.143Z,72.50
2017-06-02T17:31:44.688Z,72.60
2017-06-02T17:34:12.252Z,73.40
2017-06-02T17:36:39.805Z,73.30
2017-06-02T17:39:07.370Z,73.30
2017-06-02T17:41:34.931Z,73.00
2017-06-02T17:44:02.482Z,73.90
2017-06-02T17:46:30.049Z,73.10
2017-06-02T17:48:57.605Z,72.60
2017-06-02T17:51:25.148Z,73.00
2017-06-02T17:53:52.715Z,73.10
2017-06-02T17:56:20.288Z,73.40
2017-06-02T17:58:47.824Z,73.20
2017-06-02T18:01:15.404Z,72.40
2017-06-02T18:03:42.955Z,73.00
2017-06-02T18:06:10.498Z,72.90
2017-06-02T18:08:38.072Z,73.60
2017-06-02T18:11:05.624Z,74.50
2017-06-02T18:13:33.196Z,75.50
2017-06-02T18:16:00.769Z,76.00
2017-06-02T18:18:28.337Z,75.70
2017-06-02T18:20:56.057Z,75.60
2017-06-02T18:23:23.616Z,76.60
2017-06-02T18:25:51.570Z,77.70
2017-06-02T18:28:19.119Z,77.70
2017-06-02T18:30:46.713Z,77.40
2017-06-02T18:33:14.677Z,77.90
2017-06-02T18:35:42.736Z,78.50
2017-06-02T18:38:10.417Z,78.50
2017-06-02T18:40:38.070Z,79.10
2017-06-02T18:43:06.217Z,79.20
2017-06-02T18:45:34.142Z,79.20
2017-06-02T18:48:01.726Z,79.70
2017-06-02T18:50:29.393Z,79.10
2017-06-02T18:52:57.242Z,79.60
2017-06-02T18:55:24.893Z,79.90
2017-06-02T18:57:52.651Z,79.60
2017-06-02T19:00:20.634Z,80.10
2017-06-02T19:02:48.551Z,81.10
2017-06-02T19:05:16.798Z,82.00
2017-06-02T19:07:44.750Z,82.20
2017-06-02T19:10:12.455Z,82.40
2017-06-02T19:12:40.687Z,82.40
2017-06-02T19:15:08.815Z,82.30
2017-06-02T19:17:37.288Z,81.40
2017-06-02T19:20:05.859Z,81.10
2017-06-02T19:22:34.062Z,81.10
2017-06-02T19:25:02.193Z,81.10
2017-06-02T19:27:30.156Z,81.10
2017-06-02T19:29:58.077Z,81.10
2017-06-02T19:32:26.001Z,82.00
2017-06-02T19:34:54.081Z,82.40
2017-06-02T19:37:22.059Z,83.20
2017-06-02T19:39:50.033Z,83.80
2017-06-02T19:42:18.114Z,84.30
2017-06-02T19:44:46.157Z,84.40
2017-06-02T19:47:14.344Z,84.90
2017-06-02T19:49:42.681Z,85.10
2017-06-02T19:52:11.240Z,85.30
2017-06-02T19:54:39.754Z,85.70
2017-06-02T19:57:08.332Z,85.70
2017-06-02T19:59:36.924Z,85.80
2017-06-02T20:02:05.440Z,86.30
2017-06-02T20:04:34.561Z,86.90
2017-06-02T20:07:03.219Z,86.90
2017-06-02T20:09:32.156Z,87.20
2017-06-02T20:12:00.629Z,87.20
2017-06-02T20:14:29.237Z,87.10
2017-06-02T20:16:57.764Z,87.00
2017-06-02T20:19:26.655Z,87.40
2017-06-02T20:21:55.274Z,87.40
2017-06-02T20:24:23.844Z,87.60
2017-06-02T20:26:52.773Z,88.10
2017-06-02T20:29:21.353Z,88.10
2017-06-02T20:31:49.886Z,88.40
2017-06-02T20:34:18.762Z,88.70
2017-06-02T20:36:47.414Z,88.70
2017-06-02T20:39:15.939Z,88.80
2017-06-02T20:41:44.571Z,88.60
2017-06-02T20:44:13.116Z,88.60
2017-06-02T20:46:41.666Z,87.70
2017-06-02T20:49:10.145Z,86.80
2017-06-02T20:51:38.753Z,86.40
2017-06-02T20:54:07.266Z,85.90
2017-06-02T20:56:35.645Z,84.70
2017-06-02T20:59:04.523Z,83.40
2017-06-02T21:01:32.941Z,83.40
2017-06-02T21:04:00.975Z,83.40
2017-06-02T21:06:28.625Z,82.80
2017-06-02T21:08:56.927Z,82.00
2017-06-02T21:11:24.513Z,82.00
2017-06-02T21:13:52.206Z,82.10
2017-06-02T21:16:19.772Z,82.10
2017-06-02T21:18:47.332Z,82.10
2017-06-02T21:21:14.919Z,82.80
2017-06-02T21:23:42.969Z,83.10
2017-06-02T21:26:10.501Z,82.90
2017-06-02T21:28:38.048Z,83.40
2017-06-02T21:31:05.621Z,83.40
2017-06-02T21:33:33.156Z,84.20
2017-06-02T21:36:00.696Z,84.50
2017-06-02T21:38:28.260Z,84.70
2017-06-02T21:40:55.828Z,84.50
2017-06-02T21:43:23.375Z,85.00
2017-06-02T21:45:51.340Z,85.90
2017-06-02T21:48:18.879Z,85.90
2017-06-02T21:50:46.427Z,86.20
2017-06-02T21:53:13.996Z,86.20
2017-06-02T21:55:41.538Z,86.50
2017-06-02T21:58:09.084Z,86.50
2017-06-02T22:00:36.653Z,87.20
2017-06-02T22:03:04.191Z,87.50
2017-06-02T22:05:31.739Z,88.20
2017-06-02T22:07:59.309Z,87.90
2017-06-02T22:10:26.870Z,87.90
2017-06-02T22:12:54.412Z,88.10
2017-06-02T22:15:22.376Z,88.30
2017-06-02T22:17:50.312Z,88.10
2017-06-02T22:20:17.891Z,88.10
2017-06-02T22:22:45.452Z,88.20
2017-06-02T22:25:12.991Z,88.20
2017-06-02T22:27:40.534Z,89.10
2017-06-02T22:30:08.099Z,88.80
2017-06-02T22:32:35.643Z,88.80
2017-06-02T22:35:03.184Z,88.50
2017-06-02T22:37:30.747Z,89.10
2017-06-02T22:39:58.300Z,89.30
2017-06-02T22:42:26.240Z,88.40
2017-06-02T22:44:53.808Z,88.40
2017-06-02T22:47:21.342Z,88.80
2017-06-02T22:49:48.888Z,88.20
2017-06-02T22:52:16.464Z,88.50
2017-06-02T22:54:44.016Z,89.50
2017-06-02T22:57:11.563Z,90.00
2017-06-02T22:59:39.127Z,90.50
2017-06-02T23:02:06.668Z,90.80
2017-06-02T23:04:34.228Z,90.80
2017-06-02T23:07:01.792Z,90.70
2017-06-02T23:09:29.339Z,90.50
2017-06-02T23:11:57.296Z,90.80
2017-06-02T23:14:24.860Z,90.80
2017-06-02T23:16:52.437Z,91.00
2017-06-02T23:19:19.996Z,91.60
2017-06-02T23:21:47.593Z,91.70
2017-06-02T23:24:15.145Z,92.10
2017-06-02T23:26:42.701Z,92.10
2017-06-02T23:29:10.271Z,92.30
2017-06-02T23:31:37.906Z,92.60
2017-06-02T23:34:05.908Z,93.10
2017-06-02T23:36:33.483Z,93.10
2017-06-02T23:39:01.020Z,93.10
2017-06-02T23:41:28.567Z,93.20
2017-06-02T23:43:56.136Z,93.20
2017-06-02T23:46:23.672Z,93.00
2017-06-02T23:48:51.615Z,92.80
2017-06-02T23:51:19.192Z,92.80
2017-06-02T23:53:47.140Z,93.00
2017-06-02T23:56:14.693Z,93.10
2017-06-02T23:58:42.255Z,93.60
